Time;durP1;ratioP1;P1;durP2;ratioP2;P2;SDS_P1;SDS_P2;PMS_P1;PMS_P2;Temp;Humidity;BMP_temperature;BMP_pressure;BME280_temperature;BME280_humidity;BME280_pressure;Samples;Min_cycle;Max_cycle;Signal;HPM_P1;HPM_P2
2023/12/09 00:01:12;;;;;;;12.10;3.75;;;;;;;;;;5062294;28;20017;-64
2023/12/09 00:03:37;;;;;;;9.57;4.10;;;;;;;;;;5050939;28;20017;-64
2023/12/09 00:06:02;;;;;;;8.02;3.63;;;;;;;;;;5057547;28;20055;-64
2023/12/09 00:08:27;;;;;;;11.57;4.18;;;;;;;;;;5063592;28;20036;-64
2023/12/09 00:10:53;;;;;;;9.27;3.23;;;;;;;;;;5057810;28;20104;-64
2023/12/09 00:13:18;;;;;;;10.75;3.85;;;;;;;;;;5051481;28;20325;-64
2023/12/09 00:15:43;;;;;;;10.83;4.10;;;;;;;;;;5063862;28;20028;-64
2023/12/09 00:18:08;;;;;;;13.87;3.97;;;;;;;;;;5053853;28;20772;-65
2023/12/09 00:20:34;;;;;;;12.77;4.05;;;;;;;;;;5054405;28;20280;-64
2023/12/09 00:22:59;;;;;;;15.77;3.55;;;;;;;;;;5054712;28;20356;-63
2023/12/09 00:25:25;;;;;;;9.68;3.85;;;;;;;;;;5054623;28;20187;-63
2023/12/09 00:27:50;;;;;;;14.10;4.60;;;;;;;;;;5054659;28;20025;-63
2023/12/09 00:30:15;;;;;;;12.33;4.27;;;;;;;;;;5053846;28;20036;-63
2023/12/09 00:32:40;;;;;;;8.20;4.10;;;;;;;;;;5054294;28;20267;-63
2023/12/09 00:35:06;;;;;;;9.93;4.43;;;;;;;;;;5054293;28;20275;-63
2023/12/09 00:37:31;;;;;;;10.95;4.03;;;;;;;;;;5059149;28;20301;-63
2023/12/09 00:39:56;;;;;;;8.93;4.22;;;;;;;;;;5060010;28;20079;-63
2023/12/09 00:42:22;;;;;;;10.25;4.38;;;;;;;;;;5051157;28;20440;-62
2023/12/09 00:44:47;;;;;;;12.68;4.18;;;;;;;;;;5014867;28;20879;-63
2023/12/09 00:47:12;;;;;;;11.00;4.37;;;;;;;;;;5015154;28;20131;-62
2023/12/09 00:49:37;;;;;;;13.90;4.60;;;;;;;;;;5015565;28;20329;-63
2023/12/09 00:52:02;;;;;;;12.67;4.63;;;;;;;;;;5014438;28;20286;-63
2023/12/09 00:54:29;;;;;;;7.25;4.05;;;;;;;;;;5018591;28;20350;-63
2023/12/09 00:56:54;;;;;;;14.68;4.80;;;;;;;;;;5025654;28;20847;-63
2023/12/09 00:59:19;;;;;;;16.30;4.22;;;;;;;;;;5038688;28;20017;-63
2023/12/09 01:01:45;;;;;;;14.97;4.87;;;;;;;;;;5065268;28;20040;-63
2023/12/09 01:04:10;;;;;;;14.48;4.35;;;;;;;;;;5061365;28;20279;-63
2023/12/09 01:06:35;;;;;;;12.15;3.97;;;;;;;;;;5057924;28;20025;-63
2023/12/09 01:09:01;;;;;;;9.83;4.07;;;;;;;;;;5053858;28;20102;-63
2023/12/09 01:11:27;;;;;;;9.85;4.10;;;;;;;;;;5053290;28;20330;-63
2023/12/09 01:13:52;;;;;;;10.40;4.25;;;;;;;;;;5053628;28;20060;-63
2023/12/09 01:16:17;;;;;;;12.80;4.82;;;;;;;;;;5053285;28;20106;-63
2023/12/09 01:18:42;;;;;;;11.00;4.77;;;;;;;;;;5053425;28;20029;-63
2023/12/09 01:21:08;;;;;;;11.57;4.95;;;;;;;;;;5037149;28;20292;-63
2023/12/09 01:23:33;;;;;;;12.88;5.18;;;;;;;;;;5039528;28;20025;-63
2023/12/09 01:25:58;;;;;;;13.30;4.20;;;;;;;;;;5044977;28;20025;-63
2023/12/09 01:28:23;;;;;;;14.83;5.30;;;;;;;;;;5060054;28;20274;-63
2023/12/09 01:30:48;;;;;;;18.63;5.28;;;;;;;;;;5052799;28;20299;-63
2023/12/09 01:33:14;;;;;;;9.43;4.72;;;;;;;;;;5058470;28;20021;-63
2023/12/09 01:35:39;;;;;;;12.60;4.23;;;;;;;;;;5053273;28;20483;-63
2023/12/09 01:38:04;;;;;;;13.53;4.20;;;;;;;;;;5053865;28;20767;-63
2023/12/09 01:40:29;;;;;;;11.02;4.80;;;;;;;;;;5053029;28;20831;-63
2023/12/09 01:42:55;;;;;;;9.68;5.07;;;;;;;;;;5060677;28;20112;-63
2023/12/09 01:45:20;;;;;;;11.20;4.60;;;;;;;;;;5062260;28;20471;-63
2023/12/09 01:47:46;;;;;;;11.70;4.88;;;;;;;;;;5052986;28;20410;-63
2023/12/09 01:50:11;;;;;;;10.45;4.82;;;;;;;;;;5031007;28;20127;-63
2023/12/09 01:52:37;;;;;;;11.32;4.68;;;;;;;;;;5014460;28;20907;-63
2023/12/09 01:55:02;;;;;;;12.15;4.28;;;;;;;;;;5014610;28;20815;-63
2023/12/09 01:57:27;;;;;;;13.77;4.80;;;;;;;;;;5014188;28;20031;-63
2023/12/09 01:59:53;;;;;;;14.75;4.35;;;;;;;;;;5056326;28;20060;-63
2023/12/09 02:02:18;;;;;;;13.40;5.30;;;;;;;;;;5053619;28;20045;-63
2023/12/09 02:04:43;;;;;;;9.97;4.77;;;;;;;;;;5052604;28;20383;-62
2023/12/09 02:07:09;;;;;;;12.70;4.70;;;;;;;;;;5061446;28;20720;-63
2023/12/09 02:09:37;;;;;;;14.05;5.13;;;;;;;;;;5052956;28;20444;-62
2023/12/09 02:12:03;;;;;;;11.75;4.75;;;;;;;;;;5052909;28;20391;-62
2023/12/09 02:14:32;;;;;;;10.55;4.63;;;;;;;;;;5052898;28;20020;-62
2023/12/09 02:17:04;;;;;;;12.13;4.65;;;;;;;;;;5061865;28;20041;-62
2023/12/09 02:19:29;;;;;;;14.13;4.05;;;;;;;;;;5054864;28;20447;-63
2023/12/09 02:22:03;;;;;;;14.43;5.10;;;;;;;;;;5063275;28;20024;-63
2023/12/09 02:24:28;;;;;;;17.38;5.63;;;;;;;;;;5053863;28;20451;-63
2023/12/09 02:26:55;;;;;;;13.85;4.53;;;;;;;;;;5052398;28;20021;-63
2023/12/09 02:29:21;;;;;;;20.73;5.50;;;;;;;;;;5061465;28;20021;-63
2023/12/09 02:31:50;;;;;;;23.70;6.03;;;;;;;;;;5052235;28;20123;-63
2023/12/09 02:34:16;;;;;;;15.00;5.00;;;;;;;;;;5052574;28;20059;-62
2023/12/09 02:36:42;;;;;;;10.52;4.60;;;;;;;;;;5052783;28;20064;-62
2023/12/09 02:39:10;;;;;;;12.73;4.50;;;;;;;;;;5052122;28;20025;-62
2023/12/09 02:41:35;;;;;;;12.10;4.35;;;;;;;;;;5052289;28;20487;-62
2023/12/09 02:44:00;;;;;;;10.95;4.70;;;;;;;;;;5063431;28;20025;-62
2023/12/09 02:46:26;;;;;;;11.52;4.70;;;;;;;;;;5052070;28;20033;-63
2023/12/09 02:48:51;;;;;;;16.25;4.38;;;;;;;;;;5052045;28;20025;-62
2023/12/09 02:51:16;;;;;;;16.95;5.10;;;;;;;;;;5052374;28;20056;-62
2023/12/09 02:53:41;;;;;;;11.88;4.28;;;;;;;;;;5051848;28;20074;-63
2023/12/09 02:56:07;;;;;;;16.48;5.00;;;;;;;;;;5052433;28;20017;-62
2023/12/09 02:58:32;;;;;;;7.03;3.72;;;;;;;;;;5052401;28;20017;-62
2023/12/09 03:00:57;;;;;;;12.23;4.40;;;;;;;;;;5034202;28;20032;-63
2023/12/09 03:03:22;;;;;;;12.65;3.75;;;;;;;;;;5051732;28;20288;-62
2023/12/09 03:05:48;;;;;;;12.27;3.50;;;;;;;;;;5061840;28;20494;-62
2023/12/09 03:08:13;;;;;;;8.73;4.03;;;;;;;;;;5052519;28;20791;-62
2023/12/09 03:10:38;;;;;;;14.30;3.72;;;;;;;;;;5046871;28;20283;-62
2023/12/09 03:13:03;;;;;;;11.17;4.53;;;;;;;;;;5064648;28;20021;-63
2023/12/09 03:15:28;;;;;;;13.63;3.83;;;;;;;;;;5051720;28;20303;-63
2023/12/09 03:17:54;;;;;;;17.17;4.63;;;;;;;;;;5051880;28;20285;-63
2023/12/09 03:20:20;;;;;;;12.18;3.83;;;;;;;;;;5051962;28;20637;-63
2023/12/09 03:22:46;;;;;;;9.30;4.18;;;;;;;;;;5055235;28;20032;-63
2023/12/09 03:25:11;;;;;;;9.32;3.65;;;;;;;;;;5061010;28;20021;-63
2023/12/09 03:27:36;;;;;;;13.73;3.70;;;;;;;;;;5051697;28;20494;-63
2023/12/09 03:30:01;;;;;;;10.57;3.78;;;;;;;;;;5051762;28;20769;-63
2023/12/09 03:32:27;;;;;;;12.70;3.90;;;;;;;;;;5051386;28;20068;-63
2023/12/09 03:34:52;;;;;;;8.87;3.80;;;;;;;;;;5045803;28;20780;-63
2023/12/09 03:37:17;;;;;;;8.52;3.78;;;;;;;;;;5014126;28;21178;-63
2023/12/09 03:39:42;;;;;;;10.87;3.80;;;;;;;;;;5033074;28;20028;-63
2023/12/09 03:42:07;;;;;;;6.63;3.33;;;;;;;;;;5051299;28;20343;-63
2023/12/09 03:44:33;;;;;;;15.03;3.70;;;;;;;;;;5051223;28;20314;-63
2023/12/09 03:46:58;;;;;;;9.55;3.80;;;;;;;;;;5055042;28;20283;-63
2023/12/09 03:49:23;;;;;;;13.13;4.18;;;;;;;;;;5055659;28;20028;-63
2023/12/09 03:51:48;;;;;;;10.32;4.10;;;;;;;;;;5052809;28;20406;-63
2023/12/09 03:54:14;;;;;;;8.50;4.10;;;;;;;;;;5062800;28;20079;-63
2023/12/09 03:56:39;;;;;;;10.95;4.25;;;;;;;;;;5055264;28;20029;-63
2023/12/09 03:59:04;;;;;;;9.07;4.13;;;;;;;;;;5054889;28;20066;-63
2023/12/09 04:01:29;;;;;;;12.20;3.77;;;;;;;;;;5054374;28;20263;-63
2023/12/09 04:03:55;;;;;;;12.05;3.83;;;;;;;;;;5056934;28;20279;-63
2023/12/09 04:06:20;;;;;;;12.55;3.67;;;;;;;;;;5054863;28;20058;-63
2023/12/09 04:08:45;;;;;;;13.63;3.95;;;;;;;;;;5054801;28;20064;-63
2023/12/09 04:11:10;;;;;;;11.82;3.95;;;;;;;;;;5057378;28;20037;-63
2023/12/09 04:13:35;;;;;;;8.38;3.72;;;;;;;;;;5054231;28;20044;-63
2023/12/09 04:16:01;;;;;;;10.40;3.65;;;;;;;;;;5053960;28;20491;-63
2023/12/09 04:18:26;;;;;;;16.70;3.60;;;;;;;;;;5064545;28;20382;-63
2023/12/09 04:20:51;;;;;;;12.07;3.75;;;;;;;;;;5069798;28;20032;-63
2023/12/09 04:23:18;;;;;;;9.15;4.20;;;;;;;;;;5058661;28;20029;-63
2023/12/09 04:25:44;;;;;;;13.75;4.40;;;;;;;;;;5054440;28;20025;-64
2023/12/09 04:28:09;;;;;;;13.60;4.10;;;;;;;;;;5032139;28;20021;-63
2023/12/09 04:30:34;;;;;;;14.10;4.10;;;;;;;;;;5019558;28;20028;-64
2023/12/09 04:32:59;;;;;;;9.93;3.42;;;;;;;;;;5020619;28;20041;-64
2023/12/09 04:35:25;;;;;;;8.73;3.93;;;;;;;;;;5047080;28;20100;-63
2023/12/09 04:37:50;;;;;;;8.90;3.57;;;;;;;;;;5054199;28;20371;-64
2023/12/09 04:40:15;;;;;;;9.00;3.93;;;;;;;;;;5054082;28;20363;-64
2023/12/09 04:42:40;;;;;;;17.40;4.17;;;;;;;;;;5054396;28;20350;-62
2023/12/09 04:45:06;;;;;;;10.45;3.75;;;;;;;;;;5058922;28;20367;-63
2023/12/09 04:47:34;;;;;;;10.10;3.50;;;;;;;;;;5063156;28;20036;-63
2023/12/09 04:50:00;;;;;;;11.85;3.65;;;;;;;;;;5022856;28;20040;-62
2023/12/09 04:52:25;;;;;;;6.97;3.30;;;;;;;;;;5022303;28;20094;-63
2023/12/09 04:54:51;;;;;;;11.70;3.92;;;;;;;;;;5020040;28;20021;-63
2023/12/09 04:57:17;;;;;;;12.40;3.22;;;;;;;;;;5013845;28;20025;-63
2023/12/09 04:59:43;;;;;;;9.43;3.10;;;;;;;;;;5020078;28;20134;-63
2023/12/09 05:02:08;;;;;;;7.22;3.75;;;;;;;;;;5024213;28;20855;-61
2023/12/09 05:04:34;;;;;;;14.73;3.87;;;;;;;;;;5015646;28;20857;-61
2023/12/09 05:06:59;;;;;;;15.43;4.07;;;;;;;;;;5015443;28;21414;-61
2023/12/09 05:09:24;;;;;;;7.93;3.03;;;;;;;;;;5021930;28;20136;-61
2023/12/09 05:11:49;;;;;;;13.93;3.58;;;;;;;;;;5026012;28;20029;-61
2023/12/09 05:14:15;;;;;;;9.02;3.15;;;;;;;;;;5064317;28;20035;-62
2023/12/09 05:16:40;;;;;;;13.45;3.70;;;;;;;;;;5053300;28;20148;-64
2023/12/09 05:19:05;;;;;;;12.80;3.95;;;;;;;;;;5057593;28;20471;-61
2023/12/09 05:21:31;;;;;;;6.65;3.05;;;;;;;;;;5053522;28;20090;-61
2023/12/09 05:23:56;;;;;;;7.00;3.20;;;;;;;;;;5058558;28;20020;-61
2023/12/09 05:26:30;;;;;;;7.78;2.95;;;;;;;;;;5053534;28;20360;-61
2023/12/09 05:28:56;;;;;;;14.68;3.60;;;;;;;;;;5062674;28;20020;-61
2023/12/09 05:31:21;;;;;;;14.05;3.30;;;;;;;;;;5053744;28;20056;-63
2023/12/09 05:33:47;;;;;;;11.30;3.10;;;;;;;;;;5053282;28;20025;-63
2023/12/09 05:36:12;;;;;;;13.85;3.60;;;;;;;;;;5054190;28;20060;-62
2023/12/09 05:38:38;;;;;;;10.50;2.65;;;;;;;;;;5055918;28;20017;-61
2023/12/09 05:41:03;;;;;;;7.90;3.30;;;;;;;;;;5053341;28;20033;-61
2023/12/09 05:43:29;;;;;;;8.52;3.58;;;;;;;;;;5050138;28;20025;-65
2023/12/09 05:45:54;;;;;;;8.68;2.65;;;;;;;;;;5053389;28;20039;-62
2023/12/09 05:48:20;;;;;;;15.57;2.77;;;;;;;;;;5057205;28;20100;-62
2023/12/09 05:50:45;;;;;;;10.07;3.33;;;;;;;;;;5058208;28;20385;-62
2023/12/09 05:53:10;;;;;;;12.10;3.50;;;;;;;;;;5052602;28;20021;-63
2023/12/09 05:55:35;;;;;;;8.93;2.83;;;;;;;;;;5054530;28;20067;-63
2023/12/09 05:58:02;;;;;;;5.90;2.63;;;;;;;;;;5039697;28;20818;-65
2023/12/09 06:00:27;;;;;;;12.20;3.05;;;;;;;;;;5019552;28;20133;-62
2023/12/09 06:02:53;;;;;;;11.50;3.15;;;;;;;;;;5024473;28;20042;-63
2023/12/09 06:05:18;;;;;;;10.93;2.90;;;;;;;;;;5019576;28;20027;-62
2023/12/09 06:07:43;;;;;;;10.57;2.58;;;;;;;;;;5026242;28;20027;-62
2023/12/09 06:10:09;;;;;;;9.35;2.85;;;;;;;;;;5013002;28;20845;-61
2023/12/09 06:12:35;;;;;;;7.93;2.50;;;;;;;;;;5014235;28;20041;-61
2023/12/09 06:15:00;;;;;;;7.18;2.75;;;;;;;;;;5024704;28;20035;-61
2023/12/09 06:17:25;;;;;;;11.23;2.80;;;;;;;;;;5042963;28;20487;-61
2023/12/09 06:19:50;;;;;;;5.37;2.37;;;;;;;;;;5056597;28;20017;-61
2023/12/09 06:22:16;;;;;;;8.55;2.45;;;;;;;;;;5054732;28;20295;-61
2023/12/09 06:24:42;;;;;;;8.43;2.30;;;;;;;;;;5052376;28;20025;-61
2023/12/09 06:27:08;;;;;;;6.70;2.10;;;;;;;;;;5052808;28;20428;-61
2023/12/09 06:29:35;;;;;;;4.28;2.22;;;;;;;;;;5056818;28;20028;-63
2023/12/09 06:32:00;;;;;;;5.88;1.83;;;;;;;;;;5052515;28;20025;-63
2023/12/09 06:34:25;;;;;;;12.67;2.90;;;;;;;;;;5052018;28;20086;-62
2023/12/09 06:36:50;;;;;;;8.10;2.30;;;;;;;;;;5052414;28;20413;-61
2023/12/09 06:39:16;;;;;;;9.18;2.55;;;;;;;;;;5052267;28;20041;-63
2023/12/09 06:41:41;;;;;;;5.25;2.03;;;;;;;;;;5049826;28;20104;-60
2023/12/09 06:44:06;;;;;;;8.10;2.63;;;;;;;;;;5051967;28;20460;-61
2023/12/09 06:46:35;;;;;;;9.35;2.70;;;;;;;;;;5052025;28;20472;-62
2023/12/09 06:49:00;;;;;;;11.75;2.17;;;;;;;;;;5024733;28;20021;-64
2023/12/09 06:51:25;;;;;;;11.00;2.45;;;;;;;;;;5011767;28;20466;-64
2023/12/09 06:53:51;;;;;;;9.90;2.03;;;;;;;;;;5048543;28;20029;-63
2023/12/09 06:56:20;;;;;;;8.52;2.15;;;;;;;;;;5025310;28;20101;-61
2023/12/09 06:58:45;;;;;;;8.55;2.50;;;;;;;;;;5011593;28;20124;-62
2023/12/09 07:01:17;;;;;;;7.38;1.77;;;;;;;;;;5041912;28;20469;-62
2023/12/09 07:03:43;;;;;;;5.80;2.00;;;;;;;;;;5052059;28;20379;-62
2023/12/09 07:06:08;;;;;;;10.83;2.27;;;;;;;;;;5051749;28;20021;-62
2023/12/09 07:08:33;;;;;;;7.70;2.25;;;;;;;;;;5052068;28;20284;-61
2023/12/09 07:10:59;;;;;;;5.60;2.13;;;;;;;;;;5051665;28;20463;-63
2023/12/09 07:13:24;;;;;;;6.65;2.38;;;;;;;;;;5051777;28;20876;-62
2023/12/09 07:15:49;;;;;;;12.63;2.92;;;;;;;;;;5046671;28;20075;-62
2023/12/09 07:18:15;;;;;;;6.18;1.67;;;;;;;;;;5021854;28;20780;-62
2023/12/09 07:20:40;;;;;;;7.13;1.63;;;;;;;;;;5013588;28;20032;-62
2023/12/09 07:23:05;;;;;;;6.27;1.60;;;;;;;;;;5012240;28;20383;-62
2023/12/09 07:25:30;;;;;;;5.30;1.87;;;;;;;;;;5023823;28;20277;-62
2023/12/09 07:27:56;;;;;;;7.80;2.33;;;;;;;;;;5014780;28;20274;-62
2023/12/09 07:30:21;;;;;;;7.27;2.17;;;;;;;;;;5010532;28;20268;-62
2023/12/09 07:32:46;;;;;;;9.80;1.83;;;;;;;;;;5023465;28;20274;-62
2023/12/09 07:35:11;;;;;;;6.40;1.95;;;;;;;;;;5012091;28;20319;-62
2023/12/09 07:37:37;;;;;;;8.93;1.95;;;;;;;;;;5011873;28;20124;-62
2023/12/09 07:40:04;;;;;;;7.45;2.13;;;;;;;;;;5024230;28;20029;-62
2023/12/09 07:42:29;;;;;;;4.38;1.88;;;;;;;;;;5021516;28;20025;-62
2023/12/09 07:44:55;;;;;;;6.53;1.98;;;;;;;;;;5011283;28;20881;-62
2023/12/09 07:47:20;;;;;;;6.10;2.13;;;;;;;;;;5012358;28;20034;-62
2023/12/09 07:49:45;;;;;;;6.82;2.15;;;;;;;;;;5014386;28;20276;-62
2023/12/09 07:52:11;;;;;;;7.13;1.70;;;;;;;;;;5021859;28;20200;-62
2023/12/09 07:54:36;;;;;;;4.38;1.50;;;;;;;;;;5015063;28;21206;-62
2023/12/09 07:57:02;;;;;;;6.25;1.50;;;;;;;;;;5017902;28;20029;-62
2023/12/09 07:59:27;;;;;;;6.18;1.60;;;;;;;;;;5014850;28;20900;-62
2023/12/09 08:01:52;;;;;;;6.57;1.57;;;;;;;;;;5027747;28;20035;-62
2023/12/09 08:04:17;;;;;;;9.35;2.22;;;;;;;;;;5011788;28;20275;-62
2023/12/09 08:06:43;;;;;;;6.50;1.90;;;;;;;;;;5015685;28;20035;-62
2023/12/09 08:09:09;;;;;;;6.43;1.95;;;;;;;;;;5024058;28;20027;-62
2023/12/09 08:11:34;;;;;;;4.70;1.52;;;;;;;;;;5022094;28;20028;-62
2023/12/09 08:13:59;;;;;;;5.45;1.40;;;;;;;;;;5021143;28;20063;-62
2023/12/09 08:16:25;;;;;;;4.53;1.27;;;;;;;;;;5013239;28;20127;-63
2023/12/09 08:18:50;;;;;;;4.70;1.63;;;;;;;;;;5011512;28;20288;-63
2023/12/09 08:21:15;;;;;;;4.18;1.35;;;;;;;;;;5014287;28;20279;-63
2023/12/09 08:23:41;;;;;;;7.32;1.77;;;;;;;;;;5013306;28;20139;-63
2023/12/09 08:26:07;;;;;;;10.00;2.58;;;;;;;;;;5026271;28;20020;-63
2023/12/09 08:28:34;;;;;;;6.72;1.65;;;;;;;;;;5001697;28;20821;-63
2023/12/09 08:30:59;;;;;;;13.43;2.70;;;;;;;;;;5013846;28;20036;-63
2023/12/09 08:33:24;;;;;;;5.72;1.88;;;;;;;;;;5014419;28;20059;-62
2023/12/09 08:35:49;;;;;;;5.32;1.40;;;;;;;;;;5023309;28;20028;-62
2023/12/09 08:38:15;;;;;;;6.63;1.30;;;;;;;;;;5018845;28;20028;-63
2023/12/09 08:40:40;;;;;;;5.17;1.40;;;;;;;;;;5022927;28;20020;-63
2023/12/09 08:43:05;;;;;;;9.53;1.67;;;;;;;;;;5022999;28;20281;-62
2023/12/09 08:45:31;;;;;;;6.60;1.30;;;;;;;;;;5030251;28;20274;-62
2023/12/09 08:47:57;;;;;;;6.15;1.38;;;;;;;;;;5027795;28;20264;-63
2023/12/09 08:50:22;;;;;;;5.53;1.58;;;;;;;;;;5022866;28;20029;-62
2023/12/09 08:52:47;;;;;;;4.60;1.42;;;;;;;;;;5019983;28;20897;-63
2023/12/09 08:55:12;;;;;;;3.40;1.23;;;;;;;;;;5025000;28;20185;-63
2023/12/09 08:57:38;;;;;;;5.53;1.40;;;;;;;;;;5014582;28;20295;-63
2023/12/09 09:00:08;;;;;;;4.95;1.50;;;;;;;;;;5019531;28;20336;-62
2023/12/09 09:02:33;;;;;;;7.97;1.77;;;;;;;;;;5007752;28;20032;-63
2023/12/09 09:04:58;;;;;;;3.78;1.17;;;;;;;;;;5024302;28;21120;-63
2023/12/09 09:07:23;;;;;;;6.32;1.48;;;;;;;;;;5019376;28;20781;-62
2023/12/09 09:09:49;;;;;;;6.10;1.23;;;;;;;;;;5015883;28;20078;-63
2023/12/09 09:12:17;;;;;;;2.80;1.03;;;;;;;;;;5027038;28;20032;-63
2023/12/09 09:14:50;;;;;;;3.22;0.85;;;;;;;;;;5045950;28;20278;-64
2023/12/09 09:17:21;;;;;;;5.40;1.30;;;;;;;;;;5046743;28;20032;-64
2023/12/09 09:19:47;;;;;;;7.40;1.40;;;;;;;;;;5051974;28;20037;-64
2023/12/09 09:22:17;;;;;;;4.82;1.50;;;;;;;;;;5047504;28;20078;-64
2023/12/09 09:24:43;;;;;;;4.03;1.35;;;;;;;;;;5023973;28;20036;-63
2023/12/09 09:27:12;;;;;;;5.40;1.75;;;;;;;;;;5039486;28;20218;-64
2023/12/09 09:29:38;;;;;;;6.30;1.70;;;;;;;;;;5063402;28;20021;-63
2023/12/09 09:32:04;;;;;;;9.23;1.70;;;;;;;;;;5027268;28;20036;-62
2023/12/09 09:34:29;;;;;;;5.25;1.30;;;;;;;;;;5026241;28;20033;-62
2023/12/09 09:36:55;;;;;;;3.05;1.17;;;;;;;;;;5019567;28;20029;-62
2023/12/09 09:39:20;;;;;;;11.00;1.93;;;;;;;;;;5024160;28;20056;-63
2023/12/09 09:41:46;;;;;;;3.53;1.30;;;;;;;;;;5022707;28;20273;-64
2023/12/09 09:44:13;;;;;;;2.72;0.98;;;;;;;;;;5017904;28;20287;-62
2023/12/09 09:46:39;;;;;;;5.10;1.38;;;;;;;;;;5016476;28;20894;-62
2023/12/09 09:49:05;;;;;;;6.63;1.45;;;;;;;;;;5011939;28;20090;-62
2023/12/09 09:51:31;;;;;;;3.78;1.00;;;;;;;;;;5018083;28;20905;-62
2023/12/09 09:54:15;;;;;;;6.65;1.08;;;;;;;;;;5020676;28;20032;-62
2023/12/09 09:56:41;;;;;;;6.57;1.23;;;;;;;;;;5013904;28;20012;-63
2023/12/09 09:59:06;;;;;;;3.85;0.95;;;;;;;;;;5016251;28;20017;-63
2023/12/09 10:01:32;;;;;;;6.47;1.35;;;;;;;;;;5029250;28;20816;-62
2023/12/09 10:03:58;;;;;;;9.32;3.50;;;;;;;;;;5024851;28;20858;-62
2023/12/09 10:06:24;;;;;;;2.75;1.30;;;;;;;;;;5028646;28;20016;-62
2023/12/09 10:08:49;;;;;;;6.10;1.58;;;;;;;;;;5018027;28;20085;-62
2023/12/09 10:11:15;;;;;;;6.30;1.20;;;;;;;;;;4996145;28;20950;-63
2023/12/09 10:13:43;;;;;;;2.92;0.80;;;;;;;;;;5015161;28;20083;-63
2023/12/09 10:16:08;;;;;;;5.50;1.02;;;;;;;;;;5013191;28;20962;-63
2023/12/09 10:18:34;;;;;;;11.02;1.15;;;;;;;;;;5015901;28;20033;-64
2023/12/09 10:20:59;;;;;;;6.32;1.00;;;;;;;;;;5020512;28;20039;-64
2023/12/09 10:23:25;;;;;;;3.73;1.37;;;;;;;;;;5016822;28;20127;-64
2023/12/09 10:25:50;;;;;;;4.17;1.20;;;;;;;;;;5024221;28;20266;-63
2023/12/09 10:28:15;;;;;;;2.55;1.17;;;;;;;;;;5015441;28;20271;-64
2023/12/09 10:30:41;;;;;;;3.30;0.85;;;;;;;;;;5012993;28;20116;-63
2023/12/09 10:33:08;;;;;;;3.65;0.90;;;;;;;;;;5025378;28;20887;-64
2023/12/09 10:35:33;;;;;;;3.83;1.05;;;;;;;;;;5014779;28;20035;-63
2023/12/09 10:38:04;;;;;;;5.40;1.20;;;;;;;;;;5015987;28;20016;-63
2023/12/09 10:40:29;;;;;;;2.00;0.68;;;;;;;;;;5025951;28;20032;-64
2023/12/09 10:42:56;;;;;;;3.60;0.70;;;;;;;;;;5028082;28;20874;-63
2023/12/09 10:45:22;;;;;;;3.33;0.85;;;;;;;;;;5032961;28;20299;-64
2023/12/09 10:47:48;;;;;;;5.53;1.13;;;;;;;;;;5011398;28;20936;-64
2023/12/09 10:50:13;;;;;;;5.90;1.13;;;;;;;;;;4995697;28;20040;-63
2023/12/09 10:52:38;;;;;;;3.20;1.10;;;;;;;;;;5012385;28;20029;-63
2023/12/09 10:55:04;;;;;;;4.25;1.23;;;;;;;;;;5013597;28;20864;-62
2023/12/09 10:57:29;;;;;;;3.58;0.82;;;;;;;;;;5016440;28;20182;-63
2023/12/09 10:59:55;;;;;;;3.00;0.77;;;;;;;;;;5014132;28;20017;-63
2023/12/09 11:02:21;;;;;;;2.83;0.98;;;;;;;;;;5012279;28;20040;-63
2023/12/09 11:04:46;;;;;;;4.07;1.00;;;;;;;;;;5011992;28;20889;-63
2023/12/09 11:07:12;;;;;;;4.68;0.77;;;;;;;;;;5022380;28;20370;-63
2023/12/09 11:09:37;;;;;;;5.90;1.35;;;;;;;;;;5018153;28;20033;-63
2023/12/09 11:12:03;;;;;;;2.20;0.73;;;;;;;;;;5018858;28;20032;-63
2023/12/09 11:14:29;;;;;;;3.88;0.75;;;;;;;;;;5026265;28;20039;-63
2023/12/09 11:16:57;;;;;;;4.35;1.10;;;;;;;;;;5030110;28;20139;-63
2023/12/09 11:19:23;;;;;;;4.70;0.70;;;;;;;;;;5023383;28;20136;-63
2023/12/09 11:21:49;;;;;;;3.70;0.70;;;;;;;;;;5020825;28;20025;-63
2023/12/09 11:24:15;;;;;;;2.90;0.65;;;;;;;;;;5020940;28;20020;-63
2023/12/09 11:26:41;;;;;;;5.05;0.68;;;;;;;;;;5017019;28;20013;-63
2023/12/09 11:29:10;;;;;;;1.45;0.43;;;;;;;;;;5020131;28;20898;-63
2023/12/09 11:31:36;;;;;;;5.43;0.70;;;;;;;;;;5018006;28;20925;-63
2023/12/09 11:34:02;;;;;;;2.25;0.55;;;;;;;;;;5021431;28;20028;-63
2023/12/09 11:36:28;;;;;;;4.07;0.68;;;;;;;;;;5025730;28;20036;-63
2023/12/09 11:38:54;;;;;;;6.03;0.80;;;;;;;;;;5014792;28;20150;-63
2023/12/09 11:41:19;;;;;;;0.63;0.30;;;;;;;;;;5013161;28;20914;-63
2023/12/09 11:43:45;;;;;;;4.03;0.82;;;;;;;;;;5016735;28;20349;-63
2023/12/09 11:46:10;;;;;;;3.20;0.70;;;;;;;;;;5011822;28;20044;-63
2023/12/09 11:48:35;;;;;;;2.72;0.68;;;;;;;;;;5010813;28;20039;-63
2023/12/09 11:51:04;;;;;;;1.95;0.60;;;;;;;;;;5012158;28;20563;-63
2023/12/09 11:53:30;;;;;;;2.33;0.50;;;;;;;;;;5014107;28;20083;-63
2023/12/09 11:55:55;;;;;;;0.65;0.25;;;;;;;;;;5027778;28;20024;-63
2023/12/09 11:58:20;;;;;;;1.42;0.50;;;;;;;;;;5013958;28;20039;-64
2023/12/09 12:00:46;;;;;;;4.63;0.60;;;;;;;;;;5021050;28;20016;-63
2023/12/09 12:03:11;;;;;;;2.37;0.60;;;;;;;;;;5018817;28;20019;-63
2023/12/09 12:05:37;;;;;;;1.30;0.40;;;;;;;;;;5020639;28;20291;-62
2023/12/09 12:08:03;;;;;;;2.55;0.70;;;;;;;;;;5000712;28;20127;-62
2023/12/09 12:10:29;;;;;;;1.90;0.55;;;;;;;;;;5014156;28;20036;-62
2023/12/09 12:12:54;;;;;;;2.30;0.47;;;;;;;;;;5023657;28;20122;-63
2023/12/09 12:15:20;;;;;;;3.05;0.68;;;;;;;;;;5023032;28;20124;-62
2023/12/09 12:17:45;;;;;;;1.10;0.32;;;;;;;;;;5023370;28;20175;-63
2023/12/09 12:20:11;;;;;;;2.40;0.73;;;;;;;;;;5016972;28;20060;-63
2023/12/09 12:22:36;;;;;;;1.13;0.32;;;;;;;;;;5025249;28;20028;-63
2023/12/09 12:25:03;;;;;;;1.73;0.40;;;;;;;;;;5018196;28;20051;-62
2023/12/09 12:27:32;;;;;;;3.33;1.00;;;;;;;;;;5016472;28;20017;-63
2023/12/09 12:29:57;;;;;;;3.63;0.73;;;;;;;;;;5017280;28;20277;-64
2023/12/09 12:32:22;;;;;;;2.13;0.60;;;;;;;;;;5028063;28;20886;-63
2023/12/09 12:34:50;;;;;;;1.40;0.50;;;;;;;;;;5032681;28;20037;-64
2023/12/09 12:37:15;;;;;;;5.70;0.98;;;;;;;;;;5015104;28;20025;-64
2023/12/09 12:39:41;;;;;;;2.55;0.60;;;;;;;;;;5022077;28;20951;-63
2023/12/09 12:42:08;;;;;;;0.93;0.32;;;;;;;;;;5027676;28;20043;-63
2023/12/09 12:44:33;;;;;;;6.57;0.57;;;;;;;;;;5019911;28;20215;-64
2023/12/09 12:46:59;;;;;;;1.02;0.40;;;;;;;;;;5025378;28;20021;-64
2023/12/09 12:49:25;;;;;;;1.00;0.50;;;;;;;;;;5025531;28;20434;-63
2023/12/09 12:51:50;;;;;;;2.75;0.57;;;;;;;;;;5025736;28;20031;-63
2023/12/09 12:54:16;;;;;;;1.58;0.47;;;;;;;;;;5015935;28;20107;-63
2023/12/09 12:56:41;;;;;;;3.65;0.52;;;;;;;;;;5028925;28;20021;-63
2023/12/09 12:59:06;;;;;;;1.52;0.40;;;;;;;;;;5029857;28;20024;-63
2023/12/09 13:01:32;;;;;;;1.35;0.52;;;;;;;;;;5027096;28;20884;-64
2023/12/09 13:03:57;;;;;;;0.43;0.15;;;;;;;;;;5029852;28;20463;-63
2023/12/09 13:06:22;;;;;;;2.05;0.68;;;;;;;;;;5053369;28;20498;-64
2023/12/09 13:08:47;;;;;;;0.85;0.40;;;;;;;;;;5056098;28;20078;-63
2023/12/09 13:11:13;;;;;;;3.13;0.47;;;;;;;;;;5066971;28;20075;-63
2023/12/09 13:13:38;;;;;;;3.20;0.55;;;;;;;;;;5053477;28;20016;-63
2023/12/09 13:16:03;;;;;;;1.02;0.32;;;;;;;;;;5055651;28;20020;-64
2023/12/09 13:18:32;;;;;;;4.25;0.60;;;;;;;;;;5062623;28;20414;-63
2023/12/09 13:20:57;;;;;;;1.10;0.38;;;;;;;;;;5053729;28;20045;-64
2023/12/09 13:23:23;;;;;;;3.10;0.65;;;;;;;;;;5049896;28;20778;-63
2023/12/09 13:25:48;;;;;;;0.80;0.20;;;;;;;;;;5052350;28;20025;-63
2023/12/09 13:28:13;;;;;;;2.58;0.63;;;;;;;;;;5055845;28;20051;-64
2023/12/09 13:30:39;;;;;;;4.00;0.73;;;;;;;;;;5051625;28;20021;-64
2023/12/09 13:33:06;;;;;;;1.73;0.40;;;;;;;;;;5054210;28;20036;-63
2023/12/09 13:35:31;;;;;;;0.73;0.28;;;;;;;;;;5052415;28;20028;-64
2023/12/09 13:37:57;;;;;;;0.40;0.20;;;;;;;;;;5059397;28;20478;-63
2023/12/09 13:40:22;;;;;;;0.85;0.20;;;;;;;;;;5057636;28;20114;-64
2023/12/09 13:42:48;;;;;;;1.55;0.30;;;;;;;;;;5060392;28;20020;-63
2023/12/09 13:45:14;;;;;;;2.83;0.80;;;;;;;;;;5062613;28;20526;-63
2023/12/09 13:47:40;;;;;;;0.43;0.17;;;;;;;;;;5065562;28;20136;-63
2023/12/09 13:50:07;;;;;;;1.85;0.50;;;;;;;;;;5056300;28;20034;-63
2023/12/09 13:52:33;;;;;;;1.63;0.60;;;;;;;;;;5068229;28;20044;-64
2023/12/09 13:54:59;;;;;;;1.88;0.57;;;;;;;;;;5068026;28;20103;-63
2023/12/09 13:57:24;;;;;;;2.28;0.70;;;;;;;;;;5056562;28;20104;-63
2023/12/09 13:59:49;;;;;;;2.25;0.45;;;;;;;;;;5053604;28;20071;-64
2023/12/09 14:02:14;;;;;;;1.38;0.50;;;;;;;;;;5052363;28;20036;-63
2023/12/09 14:04:40;;;;;;;2.30;0.47;;;;;;;;;;5063443;28;20021;-63
2023/12/09 14:07:05;;;;;;;2.55;1.10;;;;;;;;;;5062035;28;20112;-63
2023/12/09 14:09:30;;;;;;;1.50;0.40;;;;;;;;;;5050585;28;20029;-63
2023/12/09 14:11:55;;;;;;;0.95;0.35;;;;;;;;;;5067591;28;20035;-63
2023/12/09 14:14:21;;;;;;;1.67;0.65;;;;;;;;;;5056546;28;20793;-63
2023/12/09 14:16:46;;;;;;;1.10;0.43;;;;;;;;;;5051936;28;20025;-63
2023/12/09 14:19:12;;;;;;;1.92;0.40;;;;;;;;;;5064219;28;20038;-63
2023/12/09 14:21:38;;;;;;;1.63;0.30;;;;;;;;;;5052800;28;20023;-63
2023/12/09 14:24:03;;;;;;;1.73;0.50;;;;;;;;;;5062843;28;20017;-63
2023/12/09 14:26:29;;;;;;;1.17;0.38;;;;;;;;;;5052846;28;20028;-62
2023/12/09 14:28:55;;;;;;;1.35;0.47;;;;;;;;;;5064908;28;20028;-63